createdAt,value
2023-02-08T00:00:02.093Z,-2.57
2023-02-08T00:02:28.651Z,-2.57
2023-02-08T00:04:55.236Z,-2.61
2023-02-08T00:07:21.744Z,-2.61
2023-02-08T00:09:48.380Z,-2.59
2023-02-08T00:12:14.885Z,-2.59
2023-02-08T00:14:41.467Z,-2.57
2023-02-08T00:17:07.964Z,-2.57
2023-02-08T00:19:34.496Z,-2.60
2023-02-08T00:22:01.014Z,-2.64
2023-02-08T00:24:27.517Z,-2.69
2023-02-08T00:26:54.124Z,-2.74
2023-02-08T00:29:20.694Z,-2.76
2023-02-08T00:31:47.253Z,-2.77
2023-02-08T00:34:13.828Z,-2.82
2023-02-08T00:36:40.433Z,-2.88
2023-02-08T00:39:08.212Z,-2.91
2023-02-08T00:41:34.747Z,-2.94
2023-02-08T00:44:01.272Z,-2.99
2023-02-08T00:46:28.780Z,-3.03
2023-02-08T00:48:55.317Z,-3.04
2023-02-08T00:51:21.898Z,-3.05
2023-02-08T00:53:49.834Z,-3.05
2023-02-08T00:56:16.551Z,-3.04
2023-02-08T00:58:43.691Z,-3.02
2023-02-08T01:01:10.979Z,-3.00
2023-02-08T01:03:39.514Z,-3.02
2023-02-08T01:06:09.374Z,-3.04
2023-02-08T01:08:36.743Z,-3.06
2023-02-08T01:11:09.954Z,-3.05
2023-02-08T01:13:38.131Z,-3.05
2023-02-08T01:16:11.640Z,-3.07
2023-02-08T01:18:39.653Z,-3.08
2023-02-08T01:21:09.511Z,-3.07
2023-02-08T01:23:36.380Z,-3.06
2023-02-08T01:26:03.569Z,-3.05
2023-02-08T01:28:30.124Z,-3.03
2023-02-08T01:30:56.780Z,-3.01
2023-02-08T01:33:23.291Z,-3.04
2023-02-08T01:35:51.855Z,-3.08
2023-02-08T01:38:18.805Z,-3.08
2023-02-08T01:40:45.664Z,-3.07
2023-02-08T01:43:32.902Z,-3.07
2023-02-08T01:45:59.681Z,-3.10
2023-02-08T01:48:29.671Z,-3.08
2023-02-08T01:51:00.739Z,-3.11
2023-02-08T01:53:28.966Z,-3.11
2023-02-08T01:55:57.801Z,-3.13
2023-02-08T01:58:25.468Z,-3.12
2023-02-08T02:00:52.001Z,-3.12
2023-02-08T02:03:20.733Z,-3.10
2023-02-08T02:05:50.284Z,-3.08
2023-02-08T02:08:16.853Z,-3.08
2023-02-08T02:10:44.113Z,-3.07
2023-02-08T02:13:15.475Z,-3.07
2023-02-08T02:15:45.528Z,-3.10
2023-02-08T02:18:15.628Z,-3.07
2023-02-08T02:20:52.451Z,-3.10
2023-02-08T02:23:37.719Z,-3.10
2023-02-08T02:26:38.319Z,-3.09
2023-02-08T02:29:32.895Z,-3.06
2023-02-08T02:32:00.214Z,-3.02
2023-02-08T02:34:31.527Z,-2.94
2023-02-08T02:37:12.084Z,-2.91
2023-02-08T02:40:02.932Z,-2.90
2023-02-08T02:42:58.599Z,-2.86
2023-02-08T02:45:33.438Z,-2.86
2023-02-08T02:48:08.102Z,-2.87
2023-02-08T02:50:43.653Z,-2.87
2023-02-08T02:53:12.382Z,-2.86
2023-02-08T02:55:42.803Z,-2.85
2023-02-08T02:58:10.980Z,-2.85
2023-02-08T03:00:38.055Z,-3.07
2023-02-08T03:03:04.972Z,-3.02
2023-02-08T03:05:31.693Z,-2.99
2023-02-08T03:08:18.451Z,-2.90
2023-02-08T03:10:57.065Z,-2.87
2023-02-08T03:13:55.019Z,-2.86
2023-02-08T03:16:32.972Z,-2.88
2023-02-08T03:19:10.160Z,-2.90
2023-02-08T03:21:59.046Z,-2.86
2023-02-08T03:24:33.242Z,-2.87
2023-02-08T03:27:33.829Z,-2.83
2023-02-08T03:30:10.730Z,-2.79
2023-02-08T03:32:48.375Z,-2.78
2023-02-08T03:35:22.468Z,-2.82
2023-02-08T03:37:58.802Z,-2.79
2023-02-08T03:40:31.719Z,-2.77
2023-02-08T03:43:01.547Z,-2.77
2023-02-08T03:45:33.586Z,-2.77
2023-02-08T03:48:03.208Z,-2.77
2023-02-08T03:50:31.082Z,-2.76
2023-02-08T03:52:58.105Z,-2.75
2023-02-08T03:55:26.427Z,-2.78
2023-02-08T03:57:59.413Z,-2.79
2023-02-08T04:00:26.149Z,-2.84
2023-02-08T04:02:56.396Z,-2.83
2023-02-08T04:05:24.159Z,-2.83
2023-02-08T04:07:51.233Z,-2.85
2023-02-08T04:10:17.804Z,-2.86
2023-02-08T04:12:45.010Z,-2.86
2023-02-08T04:15:11.538Z,-2.89
2023-02-08T04:17:38.077Z,-2.90
2023-02-08T04:20:05.230Z,-2.91
2023-02-08T04:22:31.711Z,-2.90
2023-02-08T04:24:58.207Z,-2.90
2023-02-08T04:27:24.701Z,-2.90
2023-02-08T04:29:51.177Z,-2.91
2023-02-08T04:32:17.714Z,-2.96
2023-02-08T04:34:44.204Z,-2.98
2023-02-08T04:37:11.079Z,-2.97
2023-02-08T04:39:37.705Z,-2.95
2023-02-08T04:42:04.229Z,-2.94
2023-02-08T04:44:32.910Z,-2.94
2023-02-08T04:47:00.193Z,-2.94
2023-02-08T04:49:26.720Z,-2.93
2023-02-08T04:51:53.283Z,-2.91
2023-02-08T04:54:19.907Z,-2.91
2023-02-08T04:56:46.841Z,-2.90
2023-02-08T04:59:13.328Z,-2.88
2023-02-08T05:01:39.891Z,-2.88
2023-02-08T05:04:06.443Z,-2.89
2023-02-08T05:06:33.398Z,-2.89
2023-02-08T05:08:59.887Z,-2.89
2023-02-08T05:11:26.689Z,-2.85
2023-02-08T05:13:53.328Z,-2.85
2023-02-08T05:16:19.953Z,-2.85
2023-02-08T05:18:46.754Z,-2.85
2023-02-08T05:21:13.543Z,-2.85
2023-02-08T05:23:40.120Z,-2.86
2023-02-08T05:26:11.249Z,-2.87
2023-02-08T05:28:38.164Z,-2.87
2023-02-08T05:31:19.698Z,-2.89
2023-02-08T05:33:46.628Z,-2.90
2023-02-08T05:36:13.163Z,-2.94
2023-02-08T05:38:39.708Z,-2.90
2023-02-08T05:41:06.368Z,-2.91
2023-02-08T05:43:33.072Z,-2.90
2023-02-08T05:45:59.565Z,-2.94
2023-02-08T05:48:26.124Z,-2.97
2023-02-08T05:50:52.626Z,-3.02
2023-02-08T05:53:19.176Z,-2.98
2023-02-08T05:55:46.459Z,-2.99
2023-02-08T05:58:13.109Z,-3.00
2023-02-08T06:00:40.357Z,-3.00
2023-02-08T06:03:07.158Z,-3.02
2023-02-08T06:05:33.964Z,-3.04
2023-02-08T06:08:00.533Z,-2.98
2023-02-08T06:10:27.047Z,-3.00
2023-02-08T06:12:53.537Z,-2.97
2023-02-08T06:15:20.018Z,-2.90
2023-02-08T06:17:46.519Z,-2.88
2023-02-08T06:20:13.059Z,-2.88
2023-02-08T06:22:39.656Z,-2.87
2023-02-08T06:25:06.954Z,-2.89
2023-02-08T06:27:33.523Z,-2.92
2023-02-08T06:30:00.115Z,-2.91
2023-02-08T06:32:26.655Z,-2.92
2023-02-08T06:34:53.183Z,-2.88
2023-02-08T06:37:19.680Z,-2.90
2023-02-08T06:39:46.209Z,-2.87
2023-02-08T06:42:12.918Z,-2.80
2023-02-08T06:44:48.411Z,-2.78
2023-02-08T06:47:20.602Z,-2.70
2023-02-08T06:49:47.118Z,-2.67
2023-02-08T06:52:13.628Z,-2.66
2023-02-08T06:54:40.154Z,-2.66
2023-02-08T06:57:08.341Z,-2.62
2023-02-08T06:59:35.155Z,-2.64
2023-02-08T07:02:01.856Z,-2.61
2023-02-08T07:04:28.417Z,-2.52
2023-02-08T07:06:54.915Z,-2.49
2023-02-08T07:09:21.656Z,-2.53
2023-02-08T07:11:48.170Z,-2.49
2023-02-08T07:14:15.567Z,-2.50
2023-02-08T07:16:42.182Z,-2.77
2023-02-08T07:19:08.812Z,-2.72
2023-02-08T07:21:35.374Z,-2.73
2023-02-08T07:24:01.879Z,-2.85
2023-02-08T07:26:28.445Z,-2.36
2023-02-08T07:28:54.978Z,-2.18
2023-02-08T07:31:21.518Z,-2.05
2023-02-08T07:33:48.170Z,-1.88
2023-02-08T07:36:14.772Z,-1.69
2023-02-08T07:38:41.272Z,-1.62
2023-02-08T07:41:10.101Z,-1.49
2023-02-08T07:43:38.331Z,-1.28
2023-02-08T07:46:17.021Z,-1.18
2023-02-08T07:48:43.608Z,-0.97
2023-02-08T07:51:10.564Z,-0.80
2023-02-08T07:53:37.640Z,-0.69
2023-02-08T07:56:04.620Z,-0.73
2023-02-08T07:58:31.124Z,-0.76
2023-02-08T08:00:59.621Z,-0.48
2023-02-08T08:03:26.966Z,-0.28
2023-02-08T08:05:55.035Z,-0.15
2023-02-08T08:08:21.569Z,0.13
2023-02-08T08:10:49.461Z,0.39
2023-02-08T08:13:16.332Z,0.61
2023-02-08T08:15:42.972Z,0.78
2023-02-08T08:18:09.496Z,0.90
2023-02-08T08:20:36.135Z,1.06
2023-02-08T08:23:02.629Z,1.25
2023-02-08T08:25:29.290Z,1.38
2023-02-08T08:27:56.127Z,1.59
2023-02-08T08:30:22.799Z,1.53
2023-02-08T08:32:49.334Z,1.49
2023-02-08T08:35:15.938Z,1.51
2023-02-08T08:37:42.493Z,1.78
2023-02-08T08:40:09.974Z,1.71
2023-02-08T08:42:36.952Z,1.98
2023-02-08T08:45:04.515Z,1.86
2023-02-08T08:47:31.387Z,1.94
2023-02-08T08:49:57.910Z,2.16
2023-02-08T08:52:24.570Z,2.20
2023-02-08T08:54:53.424Z,2.19
2023-02-08T08:57:20.027Z,2.32
2023-02-08T08:59:46.694Z,2.31
2023-02-08T09:02:14.032Z,2.27
2023-02-08T09:04:43.453Z,2.00
2023-02-08T09:07:10.826Z,2.29
2023-02-08T09:09:37.589Z,2.36
2023-02-08T09:12:04.445Z,2.65
2023-02-08T09:14:30.934Z,2.64
2023-02-08T09:16:57.544Z,2.57
2023-02-08T09:19:24.098Z,2.53
2023-02-08T09:21:50.667Z,2.68
2023-02-08T09:24:17.228Z,2.80
2023-02-08T09:26:45.944Z,2.84
2023-02-08T09:29:14.794Z,3.04
2023-02-08T09:31:42.163Z,3.05
2023-02-08T09:34:11.912Z,2.97
2023-02-08T09:36:40.465Z,3.06
2023-02-08T09:39:11.018Z,3.02
2023-02-08T09:41:56.189Z,3.22
2023-02-08T09:44:35.466Z,3.48
2023-02-08T09:47:09.869Z,3.80
2023-02-08T09:49:56.899Z,4.02
2023-02-08T09:52:29.514Z,4.24
2023-02-08T09:55:01.030Z,4.40
2023-02-08T09:57:31.931Z,4.27
2023-02-08T10:00:13.384Z,3.97
2023-02-08T10:02:41.415Z,4.24
2023-02-08T10:05:12.598Z,4.33
2023-02-08T10:07:40.776Z,4.21
2023-02-08T10:10:38.066Z,4.08
2023-02-08T10:13:19.502Z,3.68
2023-02-08T10:15:58.925Z,3.88
2023-02-08T10:18:54.808Z,3.86
2023-02-08T10:21:42.638Z,3.71
2023-02-08T10:24:12.074Z,3.56
2023-02-08T10:26:46.912Z,3.08
2023-02-08T10:29:25.255Z,3.45
2023-02-08T10:32:29.631Z,3.61
2023-02-08T10:35:06.056Z,3.82
2023-02-08T10:37:37.230Z,3.70
2023-02-08T10:40:26.300Z,3.73
2023-02-08T10:43:04.013Z,3.71
2023-02-08T10:45:38.172Z,3.75
2023-02-08T10:48:11.860Z,3.60
2023-02-08T10:50:43.806Z,3.57
2023-02-08T10:53:16.738Z,3.73
2023-02-08T10:55:46.850Z,3.62
2023-02-08T10:58:26.287Z,3.41
2023-02-08T11:00:54.056Z,3.47
2023-02-08T11:03:25.470Z,3.33
2023-02-08T11:05:53.222Z,3.46
2023-02-08T11:08:22.476Z,3.70
2023-02-08T11:10:56.441Z,3.90
2023-02-08T11:13:25.114Z,4.17
2023-02-08T11:15:56.701Z,4.25
2023-02-08T11:18:24.389Z,4.05
2023-02-08T11:20:57.480Z,4.03
2023-02-08T11:23:29.756Z,3.97
2023-02-08T11:26:15.361Z,4.14
2023-02-08T11:28:42.523Z,4.13
2023-02-08T11:31:20.317Z,4.24
2023-02-08T11:34:03.680Z,4.32
2023-02-08T11:36:32.841Z,4.41
2023-02-08T11:39:15.844Z,4.68
2023-02-08T11:41:46.428Z,4.73
2023-02-08T11:44:19.770Z,4.73
2023-02-08T11:46:48.552Z,4.81
2023-02-08T11:49:27.588Z,4.76
2023-02-08T11:51:54.345Z,4.60
2023-02-08T11:54:33.681Z,4.27
2023-02-08T11:57:11.593Z,4.61
2023-02-08T11:59:38.230Z,4.71
2023-02-08T12:02:29.323Z,4.86
2023-02-08T12:04:56.814Z,4.96
2023-02-08T12:07:46.527Z,5.04
2023-02-08T12:10:21.781Z,4.81
2023-02-08T12:13:01.184Z,4.77
2023-02-08T12:16:06.222Z,4.86
2023-02-08T12:19:10.182Z,5.07
2023-02-08T12:21:43.709Z,5.01
2023-02-08T12:24:25.605Z,5.05
2023-02-08T12:27:27.481Z,5.42
2023-02-08T12:30:23.345Z,5.69
2023-02-08T12:32:58.678Z,5.40
2023-02-08T12:35:45.859Z,5.05
2023-02-08T12:39:19.417Z,5.72
2023-02-08T12:42:00.599Z,5.84
2023-02-08T12:45:04.691Z,6.14
2023-02-08T12:48:03.651Z,6.34
2023-02-08T12:50:56.658Z,6.81
2023-02-08T12:53:31.372Z,7.15
2023-02-08T12:56:01.082Z,7.29
2023-02-08T12:58:31.463Z,7.80
2023-02-08T13:01:10.508Z,8.14
2023-02-08T13:03:55.117Z,8.00
2023-02-08T13:06:24.091Z,8.28
2023-02-08T13:09:13.989Z,8.36
2023-02-08T13:11:46.607Z,8.34
2023-02-08T13:14:38.170Z,8.01
2023-02-08T13:17:13.075Z,8.19
2023-02-08T13:19:59.752Z,8.50
2023-02-08T13:22:28.447Z,8.66
2023-02-08T13:25:06.287Z,8.95
2023-02-08T13:27:34.517Z,8.92
2023-02-08T13:30:01.923Z,8.97
2023-02-08T13:32:31.166Z,8.74
2023-02-08T13:35:01.432Z,9.18
2023-02-08T13:37:31.704Z,9.50
2023-02-08T13:40:07.850Z,9.53
2023-02-08T13:42:39.669Z,9.67
2023-02-08T13:45:08.372Z,9.66
2023-02-08T13:47:45.774Z,9.67
2023-02-08T13:50:40.258Z,8.90
2023-02-08T13:53:07.163Z,8.99
2023-02-08T13:55:45.893Z,8.57
2023-02-08T13:58:15.593Z,8.19
2023-02-08T14:00:54.771Z,7.45
2023-02-08T14:03:29.108Z,6.68
2023-02-08T14:06:17.080Z,6.49
2023-02-08T14:08:53.478Z,6.21
2023-02-08T14:11:33.956Z,5.91
2023-02-08T14:14:03.615Z,5.62
2023-02-08T14:16:38.976Z,5.52
2023-02-08T14:19:22.319Z,5.28
2023-02-08T14:22:03.901Z,5.05
2023-02-08T14:24:34.518Z,5.00
2023-02-08T14:27:22.709Z,4.72
2023-02-08T14:30:02.980Z,4.54
2023-02-08T14:32:31.531Z,4.39
2023-02-08T14:35:05.917Z,4.31
2023-02-08T14:37:36.657Z,4.19
2023-02-08T14:40:35.144Z,3.84
2023-02-08T14:43:19.908Z,3.85
2023-02-08T14:45:53.982Z,3.72
2023-02-08T14:48:49.902Z,3.56
2023-02-08T14:51:25.245Z,3.51
2023-02-08T14:53:57.681Z,3.41
2023-02-08T14:56:30.033Z,3.47
2023-02-08T14:59:06.834Z,3.38
2023-02-08T15:01:53.533Z,3.26
2023-02-08T15:04:20.576Z,3.07
2023-02-08T15:06:56.740Z,3.10
2023-02-08T15:09:27.340Z,3.09
2023-02-08T15:12:02.932Z,3.04
2023-02-08T15:14:31.824Z,2.92
2023-02-08T15:16:58.492Z,2.99
2023-02-08T15:19:34.351Z,2.90
2023-02-08T15:22:26.555Z,2.83
2023-02-08T15:25:00.113Z,2.73
2023-02-08T15:27:29.973Z,2.63
2023-02-08T15:29:57.133Z,2.64
2023-02-08T15:32:26.106Z,2.54
2023-02-08T15:34:59.102Z,2.59
2023-02-08T15:37:26.610Z,2.45
2023-02-08T15:40:01.074Z,2.41
2023-02-08T15:42:31.860Z,2.37
2023-02-08T15:45:04.878Z,2.37
2023-02-08T15:47:38.121Z,2.34
2023-02-08T15:50:07.863Z,2.38
2023-02-08T15:52:36.035Z,2.35
2023-02-08T15:55:05.788Z,2.28
2023-02-08T15:57:46.295Z,2.18
2023-02-08T16:00:18.277Z,2.13
2023-02-08T16:02:51.692Z,2.04
2023-02-08T16:05:21.856Z,2.06
2023-02-08T16:07:48.974Z,2.03
2023-02-08T16:10:34.058Z,1.85
2023-02-08T16:13:04.947Z,1.86
2023-02-08T16:15:44.946Z,1.76
2023-02-08T16:18:33.773Z,1.73
2023-02-08T16:21:02.535Z,1.69
2023-02-08T16:23:34.127Z,1.72
2023-02-08T16:26:27.562Z,1.65
2023-02-08T16:29:17.532Z,1.52
2023-02-08T16:31:46.668Z,1.59
2023-02-08T16:34:18.454Z,1.57
2023-02-08T16:36:50.390Z,1.49
2023-02-08T16:39:39.829Z,1.38
2023-02-08T16:42:22.825Z,1.40
2023-02-08T16:45:01.160Z,1.38
2023-02-08T16:47:38.722Z,1.30
2023-02-08T16:50:11.062Z,1.27
2023-02-08T16:52:37.939Z,1.19
2023-02-08T16:55:04.874Z,1.25
2023-02-08T16:57:44.643Z,1.13
2023-02-08T17:00:16.827Z,1.13
2023-02-08T17:02:43.874Z,1.10
2023-02-08T17:05:10.987Z,1.06
2023-02-08T17:07:37.563Z,0.98
2023-02-08T17:10:08.369Z,1.00
2023-02-08T17:12:37.018Z,0.98
2023-02-08T17:15:03.648Z,1.00
2023-02-08T17:17:30.949Z,0.93
2023-02-08T17:20:03.807Z,0.86
2023-02-08T17:22:30.353Z,0.72
2023-02-08T17:24:57.083Z,0.79
2023-02-08T17:27:23.664Z,0.79
2023-02-08T17:29:52.555Z,0.76
2023-02-08T17:32:19.377Z,0.84
2023-02-08T17:34:45.968Z,0.82
2023-02-08T17:37:12.483Z,0.72
2023-02-08T17:39:39.024Z,0.65
2023-02-08T17:42:05.631Z,0.64
2023-02-08T17:44:32.182Z,0.61
2023-02-08T17:46:58.826Z,0.66
2023-02-08T17:49:25.487Z,0.61
2023-02-08T17:51:52.044Z,0.62
2023-02-08T17:54:20.808Z,0.52
2023-02-08T17:56:47.359Z,0.64
2023-02-08T17:59:13.967Z,0.44
2023-02-08T18:01:40.791Z,0.50
2023-02-08T18:04:09.310Z,0.50
2023-02-08T18:06:35.870Z,0.55
2023-02-08T18:09:02.516Z,0.47
2023-02-08T18:11:29.098Z,0.44
2023-02-08T18:13:55.621Z,0.46
2023-02-08T18:16:24.464Z,0.44
2023-02-08T18:18:51.113Z,0.35
2023-02-08T18:21:21.267Z,0.31
2023-02-08T18:23:51.944Z,0.29
2023-02-08T18:26:20.835Z,0.20
2023-02-08T18:28:47.644Z,0.10
2023-02-08T18:31:16.570Z,0.18
2023-02-08T18:33:43.997Z,0.20
2023-02-08T18:36:13.490Z,0.25
2023-02-08T18:38:53.407Z,0.18
2023-02-08T18:41:32.154Z,0.18
2023-02-08T18:43:59.512Z,0.09
2023-02-08T18:46:29.551Z,0.07
2023-02-08T18:48:56.435Z,0.03
2023-02-08T18:51:24.068Z,0.05
2023-02-08T18:53:53.084Z,0.08
2023-02-08T18:56:47.643Z,-0.01
2023-02-08T18:59:19.137Z,-0.03
2023-02-08T19:01:45.811Z,-0.01
2023-02-08T19:04:12.404Z,-0.09
2023-02-08T19:06:39.016Z,-0.19
2023-02-08T19:09:07.561Z,-0.18
2023-02-08T19:11:36.102Z,-0.14
2023-02-08T19:14:05.259Z,-0.21
2023-02-08T19:16:33.390Z,-0.16
2023-02-08T19:19:01.157Z,-0.20
2023-02-08T19:21:28.617Z,-0.24
2023-02-08T19:23:58.106Z,-0.24
2023-02-08T19:26:26.565Z,-0.21
2023-02-08T19:28:57.677Z,-0.15
2023-02-08T19:31:28.454Z,-0.20
2023-02-08T19:33:58.699Z,-0.26
2023-02-08T19:36:28.865Z,-0.32
2023-02-08T19:38:55.922Z,-0.37
2023-02-08T19:41:25.105Z,-0.38
2023-02-08T19:43:52.353Z,-0.39
2023-02-08T19:46:22.287Z,-0.40
2023-02-08T19:48:50.046Z,-0.39
2023-02-08T19:51:17.090Z,-0.51
2023-02-08T19:53:43.831Z,-0.53
2023-02-08T19:56:16.013Z,-0.68
2023-02-08T19:58:43.217Z,-0.62
2023-02-08T20:01:13.194Z,-0.69
2023-02-08T20:03:40.648Z,-0.64
2023-02-08T20:06:33.586Z,-0.70
2023-02-08T20:09:04.031Z,-0.70
2023-02-08T20:11:54.764Z,-0.69
2023-02-08T20:14:31.626Z,-0.86
2023-02-08T20:16:58.891Z,-0.88
2023-02-08T20:19:26.098Z,-0.88
2023-02-08T20:21:52.804Z,-0.81
2023-02-08T20:24:19.497Z,-0.77
2023-02-08T20:26:46.714Z,-0.76
2023-02-08T20:29:14.489Z,-0.69
2023-02-08T20:31:43.534Z,-0.72
2023-02-08T20:34:13.280Z,-0.69
2023-02-08T20:36:44.084Z,-0.72
2023-02-08T20:39:15.033Z,-0.68
2023-02-08T20:41:44.353Z,-0.65
2023-02-08T20:44:12.538Z,-0.70
2023-02-08T20:46:39.130Z,-0.68
2023-02-08T20:49:07.033Z,-0.75
2023-02-08T20:51:34.434Z,-0.90
2023-02-08T20:54:01.867Z,-0.85
2023-02-08T20:56:34.170Z,-0.82
2023-02-08T20:59:05.487Z,-0.79
2023-02-08T21:01:34.575Z,-0.87
2023-02-08T21:04:01.302Z,-0.86
2023-02-08T21:06:29.887Z,-0.89
2023-02-08T21:08:57.926Z,-0.87
2023-02-08T21:11:27.583Z,-0.79
2023-02-08T21:13:54.814Z,-0.90
2023-02-08T21:16:21.633Z,-0.90
2023-02-08T21:18:48.227Z,-1.04
2023-02-08T21:21:15.355Z,-1.01
2023-02-08T21:23:42.893Z,-1.09
2023-02-08T21:26:12.962Z,-1.08
2023-02-08T21:28:39.670Z,-1.05
2023-02-08T21:31:13.294Z,-1.01
2023-02-08T21:33:39.975Z,-1.04
2023-02-08T21:36:10.398Z,-0.96
2023-02-08T21:38:37.200Z,-0.99
2023-02-08T21:41:14.457Z,-1.01
2023-02-08T21:43:41.004Z,-1.05
2023-02-08T21:46:08.830Z,-1.04
2023-02-08T21:48:55.810Z,-1.13
2023-02-08T21:51:42.041Z,-1.23
2023-02-08T21:54:29.742Z,-1.23
2023-02-08T21:56:58.500Z,-1.36
2023-02-08T21:59:25.297Z,-1.39
2023-02-08T22:01:51.840Z,-1.45
2023-02-08T22:04:18.495Z,-1.42
2023-02-08T22:06:45.182Z,-1.47
2023-02-08T22:09:11.727Z,-1.47
2023-02-08T22:11:38.242Z,-1.47
2023-02-08T22:14:04.806Z,-1.35
2023-02-08T22:16:31.321Z,-1.49
2023-02-08T22:18:57.881Z,-1.54
2023-02-08T22:21:24.487Z,-1.47
2023-02-08T22:23:51.859Z,-1.58
2023-02-08T22:26:18.519Z,-1.54
2023-02-08T22:28:45.105Z,-1.68
2023-02-08T22:31:13.762Z,-1.60
2023-02-08T22:33:40.386Z,-1.69
2023-02-08T22:36:08.834Z,-1.80
2023-02-08T22:38:35.892Z,-1.84
2023-02-08T22:41:02.451Z,-1.74
2023-02-08T22:43:29.312Z,-1.71
2023-02-08T22:45:58.097Z,-1.72
2023-02-08T22:48:24.862Z,-1.71
2023-02-08T22:50:51.392Z,-1.78
2023-02-08T22:53:19.817Z,-1.80
2023-02-08T22:55:56.124Z,-1.76
2023-02-08T22:58:23.028Z,-1.76
2023-02-08T23:00:49.693Z,-1.85
2023-02-08T23:03:16.886Z,-1.85
2023-02-08T23:05:46.150Z,-1.84
2023-02-08T23:08:13.431Z,-1.90
2023-02-08T23:10:40.256Z,-1.82
2023-02-08T23:13:07.397Z,-1.83
2023-02-08T23:15:37.253Z,-1.81
2023-02-08T23:18:04.243Z,-2.01
2023-02-08T23:20:30.854Z,-2.02
2023-02-08T23:22:57.394Z,-1.96
2023-02-08T23:25:23.930Z,-2.10
2023-02-08T23:27:50.451Z,-2.09
2023-02-08T23:30:17.059Z,-2.11
2023-02-08T23:32:43.775Z,-2.13
2023-02-08T23:35:10.501Z,-2.07
2023-02-08T23:37:37.430Z,-2.05
2023-02-08T23:40:04.913Z,-2.00
2023-02-08T23:42:31.524Z,-2.03
2023-02-08T23:44:59.939Z,-2.07
2023-02-08T23:47:28.161Z,-2.07
2023-02-08T23:49:54.742Z,-2.05
2023-02-08T23:52:21.675Z,-2.03
2023-02-08T23:54:48.262Z,-2.08
2023-02-08T23:57:14.943Z,-2.03
2023-02-08T23:59:41.702Z,-2.00
